createdAt,value
2019-05-30T00:01:23.270Z,80.80
2019-05-30T00:04:36.999Z,80.90
2019-05-30T00:07:51.120Z,81.06
2019-05-30T00:11:04.908Z,81.02
2019-05-30T00:14:18.484Z,81.10
2019-05-30T00:17:31.977Z,81.17
2019-05-30T00:20:45.899Z,81.23
2019-05-30T00:23:59.961Z,81.07
2019-05-30T00:27:13.601Z,80.55
2019-05-30T00:30:27.094Z,80.98
2019-05-30T00:33:40.585Z,80.96
2019-05-30T00:36:55.571Z,80.96
2019-05-30T00:40:10.091Z,81.07
2019-05-30T00:43:23.851Z,80.91
2019-05-30T00:46:37.672Z,80.90
2019-05-30T00:49:51.441Z,80.90
2019-05-30T00:53:05.490Z,80.69
2019-05-30T00:56:19.063Z,80.97
2019-05-30T00:59:32.543Z,81.33
2019-05-30T01:03:04.789Z,81.18
2019-05-30T01:06:17.220Z,81.87
2019-05-30T01:09:30.921Z,82.54
2019-05-30T01:12:44.755Z,82.47
2019-05-30T01:15:58.968Z,82.45
2019-05-30T01:19:12.750Z,82.35
2019-05-30T01:22:26.243Z,82.30
2019-05-30T01:25:39.753Z,82.22
2019-05-30T01:28:53.360Z,82.22
2019-05-30T01:32:25.259Z,82.23
2019-05-30T01:35:39.076Z,82.54
2019-05-30T01:38:52.555Z,82.73
2019-05-30T01:42:06.053Z,82.93
2019-05-30T01:45:19.743Z,83.08
2019-05-30T01:48:36.025Z,82.85
2019-05-30T01:51:49.403Z,82.46
2019-05-30T01:55:04.678Z,82.65
2019-05-30T01:58:18.306Z,83.05
2019-05-30T02:01:31.801Z,83.17
2019-05-30T02:04:45.677Z,83.20
2019-05-30T02:07:59.150Z,83.62
2019-05-30T02:11:12.767Z,83.80
2019-05-30T02:14:26.399Z,83.82
2019-05-30T02:17:40.073Z,84.12
2019-05-30T02:20:54.138Z,84.17
2019-05-30T02:24:08.032Z,84.28
2019-05-30T02:27:21.880Z,84.16
2019-05-30T02:30:35.649Z,83.95
2019-05-30T02:33:49.242Z,83.75
2019-05-30T02:37:03.879Z,83.87
2019-05-30T02:40:18.964Z,83.88
2019-05-30T02:43:32.750Z,84.31
2019-05-30T02:46:46.651Z,84.48
2019-05-30T02:50:01.556Z,84.60
2019-05-30T02:53:15.646Z,84.21
2019-05-30T02:56:29.155Z,84.10
2019-05-30T02:59:43.012Z,84.01
2019-05-30T03:02:56.960Z,84.49
2019-05-30T03:06:13.949Z,84.73
2019-05-30T03:09:27.499Z,84.64
2019-05-30T03:12:41.193Z,84.43
2019-05-30T03:15:55.197Z,84.22
2019-05-30T03:19:10.923Z,84.33
2019-05-30T03:22:24.298Z,84.55
2019-05-30T03:25:38.008Z,84.40
2019-05-30T03:28:53.567Z,84.14
2019-05-30T03:32:51.648Z,84.11
2019-05-30T03:35:29.820Z,84.31
2019-05-30T03:38:39.722Z,84.38
2019-05-30T03:41:53.415Z,84.36
2019-05-30T03:45:10.887Z,83.72
2019-05-30T03:48:26.852Z,83.53
2019-05-30T03:51:42.406Z,83.76
2019-05-30T03:54:56.961Z,83.55
2019-05-30T03:58:20.319Z,83.46
2019-05-30T04:01:46.979Z,83.58
2019-05-30T04:05:03.650Z,83.62
2019-05-30T04:08:20.248Z,83.59
2019-05-30T04:11:41.426Z,83.38
2019-05-30T04:15:00.767Z,83.25
2019-05-30T04:18:16.330Z,83.29
2019-05-30T04:21:31.442Z,82.92
2019-05-30T04:24:45.170Z,82.57
2019-05-30T04:27:59.025Z,82.50
2019-05-30T04:31:14.403Z,82.24
2019-05-30T04:34:28.100Z,82.27
2019-05-30T04:37:41.712Z,81.67
2019-05-30T04:40:55.302Z,81.98
2019-05-30T04:44:09.816Z,81.93
2019-05-30T04:47:24.570Z,82.01
2019-05-30T04:50:38.252Z,81.54
2019-05-30T04:53:51.763Z,81.18
2019-05-30T04:57:05.356Z,80.82
2019-05-30T05:00:19.560Z,81.00
2019-05-30T05:03:45.151Z,81.58
2019-05-30T05:06:50.261Z,81.72
2019-05-30T05:10:04.758Z,81.64
2019-05-30T05:16:40.157Z,80.98
2019-05-30T05:19:53.659Z,80.56
2019-05-30T05:23:07.153Z,80.58
2019-05-30T05:26:21.638Z,80.08
2019-05-30T05:29:35.236Z,80.13
2019-05-30T05:32:48.757Z,80.37
2019-05-30T05:36:02.485Z,80.01
2019-05-30T05:39:16.212Z,79.29
2019-05-30T05:42:30.262Z,78.95
2019-05-30T05:45:43.882Z,78.76
2019-05-30T05:48:57.481Z,79.09
2019-05-30T05:52:12.165Z,79.02
2019-05-30T05:55:25.770Z,78.57
2019-05-30T05:58:39.508Z,78.36
2019-05-30T06:01:53.105Z,78.17
2019-05-30T06:05:06.809Z,77.85
2019-05-30T06:08:21.486Z,77.68
2019-05-30T06:11:35.126Z,77.18
2019-05-30T06:14:49.007Z,76.80
2019-05-30T06:18:02.639Z,76.48
2019-05-30T06:21:17.236Z,76.01
2019-05-30T06:24:30.931Z,76.24
2019-05-30T06:27:44.521Z,75.60
2019-05-30T06:30:59.101Z,74.93
2019-05-30T06:34:26.259Z,73.46
2019-05-30T06:37:29.282Z,70.08
2019-05-30T06:40:43.242Z,70.30
2019-05-30T06:43:57.155Z,70.60
2019-05-30T06:47:10.965Z,70.21
2019-05-30T06:50:24.751Z,69.78
2019-05-30T06:53:38.340Z,69.62
2019-05-30T06:56:52.180Z,67.58
2019-05-30T07:00:06.097Z,66.27
2019-05-30T07:03:19.594Z,63.88
2019-05-30T07:06:33.770Z,62.53
2019-05-30T07:09:47.620Z,61.56
2019-05-30T07:13:01.430Z,60.18
2019-05-30T07:16:15.066Z,56.60
2019-05-30T07:19:29.543Z,55.77
2019-05-30T07:22:43.233Z,53.61
2019-05-30T07:25:56.823Z,53.91
2019-05-30T07:29:11.459Z,54.37
2019-05-30T07:32:25.841Z,51.46
2019-05-30T07:35:39.627Z,51.82
2019-05-30T07:38:53.641Z,49.74
2019-05-30T07:42:07.372Z,51.30
2019-05-30T07:45:21.368Z,50.38
2019-05-30T07:48:35.061Z,49.89
2019-05-30T07:51:49.224Z,50.71
2019-05-30T07:55:03.855Z,49.56
2019-05-30T07:58:18.067Z,49.23
2019-05-30T08:01:32.566Z,49.80
2019-05-30T08:04:47.094Z,50.01
2019-05-30T08:08:01.343Z,49.97
2019-05-30T08:11:15.102Z,51.11
2019-05-30T08:14:29.112Z,50.41
2019-05-30T08:17:44.477Z,51.46
2019-05-30T08:20:58.461Z,50.86
2019-05-30T08:24:12.263Z,51.73
2019-05-30T08:27:26.183Z,51.77
2019-05-30T08:30:40.120Z,52.10
2019-05-30T08:33:53.809Z,50.58
2019-05-30T08:37:07.562Z,51.18
2019-05-30T08:40:21.395Z,49.37
2019-05-30T08:43:35.576Z,48.65
2019-05-30T08:46:49.407Z,49.51
2019-05-30T08:50:04.013Z,49.20
2019-05-30T08:53:17.746Z,49.56
2019-05-30T08:56:32.934Z,49.92
2019-05-30T08:59:46.716Z,49.34
2019-05-30T09:03:00.210Z,49.42
2019-05-30T09:06:14.142Z,49.81
2019-05-30T09:09:27.779Z,50.20
2019-05-30T09:12:43.619Z,49.50
2019-05-30T09:15:57.120Z,48.62
2019-05-30T09:19:10.904Z,49.10
2019-05-30T09:22:24.686Z,48.76
2019-05-30T09:25:38.909Z,47.45
2019-05-30T09:28:54.108Z,47.87
2019-05-30T09:32:07.714Z,47.71
2019-05-30T09:35:21.518Z,46.54
2019-05-30T09:38:35.575Z,45.59
2019-05-30T09:41:49.841Z,47.29
2019-05-30T09:45:04.081Z,45.71
2019-05-30T09:48:17.796Z,45.14
2019-05-30T09:51:31.530Z,44.93
2019-05-30T09:54:45.892Z,46.08
2019-05-30T09:57:59.933Z,45.84
2019-05-30T10:01:13.669Z,43.14
2019-05-30T10:04:27.585Z,43.40
2019-05-30T10:07:43.566Z,44.52
2019-05-30T10:10:56.879Z,43.81
2019-05-30T10:14:11.513Z,43.66
2019-05-30T10:17:26.536Z,42.70
2019-05-30T10:20:43.068Z,42.07
2019-05-30T10:23:57.596Z,42.69
2019-05-30T10:27:11.717Z,43.43
2019-05-30T10:30:31.933Z,42.86
2019-05-30T10:33:47.925Z,41.79
2019-05-30T10:37:02.169Z,41.33
2019-05-30T10:40:26.528Z,40.34
2019-05-30T10:43:40.560Z,42.06
2019-05-30T10:46:57.740Z,42.02
2019-05-30T10:50:17.498Z,42.44
2019-05-30T10:53:31.234Z,42.32
2019-05-30T10:56:45.157Z,43.71
2019-05-30T11:00:00.458Z,42.33
2019-05-30T11:03:14.524Z,40.38
2019-05-30T11:06:38.731Z,41.41
2019-05-30T11:09:59.849Z,40.28
2019-05-30T11:13:14.993Z,40.46
2019-05-30T11:16:28.572Z,41.91
2019-05-30T11:19:42.381Z,39.08
2019-05-30T11:22:56.447Z,39.95
2019-05-30T11:26:10.112Z,40.27
2019-05-30T11:29:23.940Z,40.41
2019-05-30T11:32:37.687Z,39.44
2019-05-30T11:35:51.420Z,38.81
2019-05-30T11:39:05.673Z,39.83
2019-05-30T11:42:19.501Z,39.48
2019-05-30T11:45:33.235Z,40.47
2019-05-30T11:48:47.261Z,41.09
2019-05-30T11:52:01.413Z,40.08
2019-05-30T11:55:15.246Z,41.82
2019-05-30T11:58:28.799Z,41.92
2019-05-30T12:01:42.370Z,42.33
2019-05-30T12:04:56.607Z,40.78
2019-05-30T12:08:10.353Z,40.91
2019-05-30T12:11:23.922Z,40.82
2019-05-30T12:16:40.036Z,41.65
2019-05-30T12:19:53.681Z,42.88
2019-05-30T12:23:07.188Z,39.87
2019-05-30T12:26:21.101Z,40.48
2019-05-30T12:29:34.727Z,38.88
2019-05-30T12:32:48.511Z,40.04
2019-05-30T12:36:02.970Z,41.83
2019-05-30T12:39:16.610Z,42.96
2019-05-30T12:42:30.245Z,43.28
2019-05-30T12:45:43.986Z,41.38
2019-05-30T12:48:57.634Z,42.24
2019-05-30T12:52:11.277Z,43.04
2019-05-30T12:55:25.398Z,43.12
2019-05-30T12:58:39.329Z,43.67
2019-05-30T13:01:52.908Z,43.04
2019-05-30T13:05:07.274Z,42.51
2019-05-30T13:08:22.090Z,41.55
2019-05-30T13:11:36.110Z,40.46
2019-05-30T13:14:49.926Z,42.57
2019-05-30T13:18:04.354Z,42.80
2019-05-30T13:21:17.929Z,42.76
2019-05-30T13:24:31.589Z,42.98
2019-05-30T13:27:45.309Z,43.13
2019-05-30T13:31:00.223Z,43.54
2019-05-30T13:34:14.171Z,42.48
2019-05-30T13:37:27.883Z,43.42
2019-05-30T13:40:41.976Z,46.18
2019-05-30T13:43:55.600Z,44.85
2019-05-30T13:47:09.096Z,43.30
2019-05-30T13:50:23.170Z,43.13
2019-05-30T13:53:36.788Z,44.04
2019-05-30T13:56:50.391Z,43.68
2019-05-30T14:00:06.087Z,44.46
2019-05-30T14:03:19.772Z,44.14
2019-05-30T14:06:33.385Z,44.33
2019-05-30T14:09:47.195Z,42.96
2019-05-30T14:13:00.853Z,44.54
2019-05-30T14:16:14.449Z,43.07
2019-05-30T14:19:28.087Z,44.15
2019-05-30T14:22:41.933Z,44.05
2019-05-30T14:25:55.801Z,44.93
2019-05-30T14:29:09.848Z,44.33
2019-05-30T14:32:23.554Z,45.21
2019-05-30T14:35:37.053Z,45.23
2019-05-30T14:38:58.221Z,43.59
2019-05-30T14:42:07.108Z,43.56
2019-05-30T14:49:36.688Z,44.37
2019-05-30T14:52:50.220Z,44.64
2019-05-30T14:56:05.009Z,45.69
2019-05-30T14:59:18.864Z,45.34
2019-05-30T15:02:32.463Z,45.50
2019-05-30T15:05:45.986Z,46.15
2019-05-30T15:09:14.340Z,47.50
2019-05-30T15:12:16.802Z,49.20
2019-05-30T15:15:30.570Z,48.43
2019-05-30T15:18:44.302Z,47.90
2019-05-30T15:21:57.870Z,48.73
2019-05-30T15:25:12.179Z,49.88
2019-05-30T15:28:25.747Z,49.23
2019-05-30T15:31:39.710Z,48.96
2019-05-30T15:34:53.358Z,48.33
2019-05-30T15:38:07.071Z,48.13
2019-05-30T15:41:20.973Z,46.92
2019-05-30T15:44:34.640Z,48.03
2019-05-30T15:47:48.482Z,48.47
2019-05-30T15:51:02.061Z,47.85
2019-05-30T15:54:15.985Z,48.86
2019-05-30T15:57:30.632Z,48.17
2019-05-30T16:00:44.504Z,48.42
2019-05-30T16:03:58.196Z,47.75
2019-05-30T16:07:12.538Z,47.68
2019-05-30T16:14:41.511Z,46.74
2019-05-30T16:17:55.161Z,47.35
2019-05-30T16:21:08.674Z,42.67
2019-05-30T16:24:22.312Z,38.58
2019-05-30T16:27:36.025Z,37.64
2019-05-30T16:30:49.534Z,37.22
2019-05-30T16:34:03.471Z,39.08
2019-05-30T16:37:18.164Z,39.36
2019-05-30T16:44:59.770Z,35.18
2019-05-30T16:48:14.339Z,34.16
2019-05-30T16:51:28.198Z,35.50
2019-05-30T16:54:41.738Z,37.38
2019-05-30T17:01:24.261Z,39.75
2019-05-30T17:04:38.157Z,37.89
2019-05-30T17:07:52.158Z,35.04
2019-05-30T17:11:05.743Z,33.06
2019-05-30T17:14:19.756Z,30.80
2019-05-30T17:17:33.283Z,29.79
2019-05-30T17:20:47.438Z,29.75
2019-05-30T17:24:01.428Z,28.39
2019-05-30T17:27:14.962Z,28.61
2019-05-30T17:30:28.750Z,28.70
2019-05-30T17:33:42.450Z,30.72
2019-05-30T17:36:55.950Z,32.20
2019-05-30T17:40:11.748Z,35.59
2019-05-30T17:43:25.519Z,38.14
2019-05-30T17:46:39.477Z,41.35
2019-05-30T17:49:53.118Z,42.48
2019-05-30T17:53:06.729Z,44.96
2019-05-30T17:56:21.943Z,46.18
2019-05-30T17:59:36.001Z,46.76
2019-05-30T18:02:49.516Z,47.94
2019-05-30T18:06:03.341Z,48.10
2019-05-30T18:09:17.030Z,48.94
2019-05-30T18:12:31.221Z,49.66
2019-05-30T18:15:45.020Z,49.40
2019-05-30T18:18:58.921Z,45.68
2019-05-30T18:22:12.793Z,44.96
2019-05-30T18:25:27.655Z,45.53
2019-05-30T18:28:41.330Z,47.26
2019-05-30T18:31:55.066Z,49.65
2019-05-30T18:35:08.961Z,51.42
2019-05-30T18:38:22.537Z,52.71
2019-05-30T18:41:36.577Z,53.52
2019-05-30T18:44:50.304Z,54.70
2019-05-30T18:48:04.365Z,55.97
2019-05-30T18:51:18.131Z,57.05
2019-05-30T18:54:32.925Z,58.08
2019-05-30T18:57:46.591Z,59.07
2019-05-30T19:01:00.174Z,60.37
2019-05-30T19:04:14.524Z,61.47
2019-05-30T19:07:28.769Z,62.20
2019-05-30T19:10:42.492Z,63.38
2019-05-30T19:13:56.115Z,64.13
2019-05-30T19:17:10.046Z,65.28
2019-05-30T19:20:25.556Z,66.84
2019-05-30T19:23:39.828Z,67.32
2019-05-30T19:26:53.532Z,67.62
2019-05-30T19:30:08.165Z,68.70
2019-05-30T19:33:22.054Z,69.03
2019-05-30T19:36:35.573Z,70.10
2019-05-30T19:39:49.116Z,70.92
2019-05-30T19:43:02.921Z,72.17
2019-05-30T19:46:16.539Z,72.84
2019-05-30T19:49:30.424Z,73.19
2019-05-30T19:52:46.864Z,73.30
2019-05-30T19:55:59.683Z,73.48
2019-05-30T19:59:13.517Z,74.25
2019-05-30T20:02:27.198Z,74.49
2019-05-30T20:05:40.976Z,75.45
2019-05-30T20:08:55.788Z,75.70
2019-05-30T20:12:09.677Z,75.67
2019-05-30T20:15:23.592Z,75.89
2019-05-30T20:18:37.755Z,76.16
2019-05-30T20:21:51.316Z,76.24
2019-05-30T20:25:05.498Z,76.32
2019-05-30T20:28:19.334Z,76.67
2019-05-30T20:31:33.428Z,77.13
2019-05-30T20:34:47.153Z,76.80
2019-05-30T20:38:01.660Z,77.20
2019-05-30T20:41:15.329Z,76.85
2019-05-30T20:44:28.920Z,76.64
2019-05-30T20:47:44.104Z,76.68
2019-05-30T20:50:57.834Z,77.33
2019-05-30T20:54:11.502Z,77.35
2019-05-30T20:57:25.130Z,77.67
2019-05-30T21:00:40.172Z,77.68
2019-05-30T21:03:54.539Z,77.95
2019-05-30T21:07:09.015Z,78.20
2019-05-30T21:10:22.626Z,77.85
2019-05-30T21:16:42.032Z,77.72
2019-05-30T21:19:55.948Z,78.58
2019-05-30T21:23:09.447Z,79.00
2019-05-30T21:26:23.064Z,79.53
2019-05-30T21:29:36.823Z,79.59
2019-05-30T21:32:50.662Z,78.86
2019-05-30T21:36:04.794Z,79.11
2019-05-30T21:39:18.674Z,78.37
2019-05-30T21:42:32.266Z,77.90
2019-05-30T21:45:46.862Z,78.28
2019-05-30T21:49:00.566Z,77.95
2019-05-30T21:52:14.185Z,78.11
2019-05-30T21:55:27.821Z,77.95
2019-05-30T21:58:42.160Z,78.16
2019-05-30T22:01:57.453Z,78.00
2019-05-30T22:05:11.530Z,78.21
2019-05-30T22:08:25.015Z,78.63
2019-05-30T22:11:38.868Z,79.25
2019-05-30T22:14:52.514Z,79.48
2019-05-30T22:18:06.013Z,79.77
2019-05-30T22:21:19.750Z,79.91
2019-05-30T22:24:33.346Z,79.65
2019-05-30T22:27:48.213Z,79.81
2019-05-30T22:31:02.051Z,79.94
2019-05-30T22:34:15.542Z,80.01
2019-05-30T22:37:29.059Z,80.07
2019-05-30T22:40:43.697Z,80.42
2019-05-30T22:43:57.250Z,80.60
2019-05-30T22:47:10.788Z,80.76
2019-05-30T22:50:24.277Z,80.87
2019-05-30T22:53:37.786Z,80.68
2019-05-30T22:56:51.546Z,80.78
2019-05-30T23:00:05.358Z,80.75
2019-05-30T23:03:19.171Z,81.02
2019-05-30T23:06:32.775Z,80.91
2019-05-30T23:09:47.514Z,81.73
2019-05-30T23:13:01.234Z,81.36
2019-05-30T23:16:14.817Z,81.57
2019-05-30T23:19:28.346Z,81.38
2019-05-30T23:22:41.854Z,81.39
2019-05-30T23:25:55.495Z,81.21
2019-05-30T23:29:09.074Z,81.39
2019-05-30T23:32:22.614Z,81.39
2019-05-30T23:35:36.122Z,81.50
2019-05-30T23:38:50.720Z,81.47
2019-05-30T23:42:04.401Z,81.96
2019-05-30T23:45:18.103Z,81.70
2019-05-30T23:48:31.703Z,82.42
2019-05-30T23:51:45.506Z,82.50
2019-05-30T23:55:01.956Z,82.52
2019-05-30T23:58:14.642Z,82.00
